sensor_id;sensor_type;location;lat;lon;timestamp;P1;durP1;ratioP1;P2;durP2;ratioP2
57846;SDS011;43675;50.030;21.952;2022-07-12T00:00:05;17.92;;;16.37;;
57846;SDS011;43675;50.030;21.952;2022-07-12T00:02:33;18.30;;;16.77;;
57846;SDS011;43675;50.030;21.952;2022-07-12T00:04:59;18.07;;;16.67;;
57846;SDS011;43675;50.030;21.952;2022-07-12T00:07:25;18.42;;;16.87;;
57846;SDS011;43675;50.030;21.952;2022-07-12T00:09:50;18.25;;;16.87;;
57846;SDS011;43675;50.030;21.952;2022-07-12T00:12:16;18.30;;;16.80;;
57846;SDS011;43675;50.030;21.952;2022-07-12T00:14:42;18.10;;;16.60;;
57846;SDS011;43675;50.030;21.952;2022-07-12T00:17:07;18.45;;;16.95;;
57846;SDS011;43675;50.030;21.952;2022-07-12T00:19:33;18.42;;;16.97;;
57846;SDS011;43675;50.030;21.952;2022-07-12T00:21:58;17.80;;;16.20;;
57846;SDS011;43675;50.030;21.952;2022-07-12T00:24:24;18.37;;;16.90;;
57846;SDS011;43675;50.030;21.952;2022-07-12T00:26:49;18.35;;;16.82;;
57846;SDS011;43675;50.030;21.952;2022-07-12T00:29:15;17.85;;;16.55;;
57846;SDS011;43675;50.030;21.952;2022-07-12T00:31:41;18.17;;;16.77;;
57846;SDS011;43675;50.030;21.952;2022-07-12T00:34:06;18.52;;;16.90;;
57846;SDS011;43675;50.030;21.952;2022-07-12T00:36:32;18.15;;;16.75;;
57846;SDS011;43675;50.030;21.952;2022-07-12T00:38:57;19.40;;;17.70;;
57846;SDS011;43675;50.030;21.952;2022-07-12T00:41:23;19.67;;;18.07;;
57846;SDS011;43675;50.030;21.952;2022-07-12T00:43:48;19.65;;;18.15;;
57846;SDS011;43675;50.030;21.952;2022-07-12T00:46:14;20.75;;;19.15;;
57846;SDS011;43675;50.030;21.952;2022-07-12T00:48:43;20.52;;;18.90;;
57846;SDS011;43675;50.030;21.952;2022-07-12T00:51:09;20.27;;;18.77;;
57846;SDS011;43675;50.030;21.952;2022-07-12T00:53:34;21.30;;;19.55;;
57846;SDS011;43675;50.030;21.952;2022-07-12T00:56:00;20.97;;;19.27;;
57846;SDS011;43675;50.030;21.952;2022-07-12T00:58:26;21.62;;;19.62;;
57846;SDS011;43675;50.030;21.952;2022-07-12T01:00:54;20.10;;;18.60;;
57846;SDS011;43675;50.030;21.952;2022-07-12T01:03:21;20.08;;;18.60;;
57846;SDS011;43675;50.030;21.952;2022-07-12T01:05:46;19.37;;;17.82;;
57846;SDS011;43675;50.030;21.952;2022-07-12T01:08:12;19.40;;;17.80;;
57846;SDS011;43675;50.030;21.952;2022-07-12T01:10:39;19.12;;;17.55;;
57846;SDS011;43675;50.030;21.952;2022-07-12T01:13:05;19.15;;;17.52;;
57846;SDS011;43675;50.030;21.952;2022-07-12T01:15:32;18.65;;;17.23;;
57846;SDS011;43675;50.030;21.952;2022-07-12T01:17:58;19.32;;;17.73;;
57846;SDS011;43675;50.030;21.952;2022-07-12T01:20:26;18.87;;;17.27;;
57846;SDS011;43675;50.030;21.952;2022-07-12T01:22:53;19.02;;;17.52;;
57846;SDS011;43675;50.030;21.952;2022-07-12T01:25:19;19.32;;;17.70;;
57846;SDS011;43675;50.030;21.952;2022-07-12T01:27:45;19.23;;;17.62;;
57846;SDS011;43675;50.030;21.952;2022-07-12T01:30:11;19.35;;;17.75;;
57846;SDS011;43675;50.030;21.952;2022-07-12T01:32:36;19.42;;;17.80;;
57846;SDS011;43675;50.030;21.952;2022-07-12T01:35:03;19.90;;;17.98;;
57846;SDS011;43675;50.030;21.952;2022-07-12T01:37:31;20.17;;;18.35;;
57846;SDS011;43675;50.030;21.952;2022-07-12T01:40:03;19.32;;;17.85;;
57846;SDS011;43675;50.030;21.952;2022-07-12T01:42:30;19.87;;;17.95;;
57846;SDS011;43675;50.030;21.952;2022-07-12T01:44:55;19.25;;;17.77;;
57846;SDS011;43675;50.030;21.952;2022-07-12T01:47:23;19.95;;;18.20;;
57846;SDS011;43675;50.030;21.952;2022-07-12T01:49:50;19.42;;;17.90;;
57846;SDS011;43675;50.030;21.952;2022-07-12T01:52:16;18.90;;;17.50;;
57846;SDS011;43675;50.030;21.952;2022-07-12T01:54:43;19.40;;;17.67;;
57846;SDS011;43675;50.030;21.952;2022-07-12T01:57:09;19.87;;;18.27;;
57846;SDS011;43675;50.030;21.952;2022-07-12T01:59:34;19.40;;;17.90;;
57846;SDS011;43675;50.030;21.952;2022-07-12T02:02:01;19.65;;;18.17;;
57846;SDS011;43675;50.030;21.952;2022-07-12T02:04:27;19.55;;;17.90;;
57846;SDS011;43675;50.030;21.952;2022-07-12T02:06:54;19.40;;;18.00;;
57846;SDS011;43675;50.030;21.952;2022-07-12T02:09:20;19.82;;;18.23;;
57846;SDS011;43675;50.030;21.952;2022-07-12T02:11:46;19.37;;;17.87;;
57846;SDS011;43675;50.030;21.952;2022-07-12T02:14:12;19.77;;;17.98;;
57846;SDS011;43675;50.030;21.952;2022-07-12T02:16:39;20.10;;;18.50;;
57846;SDS011;43675;50.030;21.952;2022-07-12T02:19:05;20.08;;;18.37;;
57846;SDS011;43675;50.030;21.952;2022-07-12T02:21:31;20.62;;;18.90;;
57846;SDS011;43675;50.030;21.952;2022-07-12T02:23:56;20.35;;;18.55;;
57846;SDS011;43675;50.030;21.952;2022-07-12T02:26:22;20.68;;;18.75;;
57846;SDS011;43675;50.030;21.952;2022-07-12T02:28:48;20.12;;;18.32;;
57846;SDS011;43675;50.030;21.952;2022-07-12T02:31:14;20.80;;;18.98;;
57846;SDS011;43675;50.030;21.952;2022-07-12T02:33:39;20.52;;;18.82;;
57846;SDS011;43675;50.030;21.952;2022-07-12T02:36:05;20.92;;;18.98;;
57846;SDS011;43675;50.030;21.952;2022-07-12T02:38:31;20.60;;;18.87;;
57846;SDS011;43675;50.030;21.952;2022-07-12T02:40:57;20.20;;;18.70;;
57846;SDS011;43675;50.030;21.952;2022-07-12T02:43:23;20.27;;;18.70;;
57846;SDS011;43675;50.030;21.952;2022-07-12T02:45:50;19.95;;;18.37;;
57846;SDS011;43675;50.030;21.952;2022-07-12T02:48:17;21.25;;;19.30;;
57846;SDS011;43675;50.030;21.952;2022-07-12T02:50:43;20.25;;;18.65;;
57846;SDS011;43675;50.030;21.952;2022-07-12T02:53:09;19.45;;;17.95;;
57846;SDS011;43675;50.030;21.952;2022-07-12T02:55:35;19.30;;;17.73;;
57846;SDS011;43675;50.030;21.952;2022-07-12T02:58:02;19.05;;;17.25;;
57846;SDS011;43675;50.030;21.952;2022-07-12T03:00:28;19.00;;;17.17;;
57846;SDS011;43675;50.030;21.952;2022-07-12T03:02:55;19.30;;;17.60;;
57846;SDS011;43675;50.030;21.952;2022-07-12T03:05:21;18.95;;;17.35;;
57846;SDS011;43675;50.030;21.952;2022-07-12T03:07:46;19.07;;;17.48;;
57846;SDS011;43675;50.030;21.952;2022-07-12T03:10:12;19.95;;;18.15;;
57846;SDS011;43675;50.030;21.952;2022-07-12T03:12:38;18.80;;;17.20;;
57846;SDS011;43675;50.030;21.952;2022-07-12T03:15:04;19.20;;;17.52;;
57846;SDS011;43675;50.030;21.952;2022-07-12T03:17:31;18.60;;;16.90;;
57846;SDS011;43675;50.030;21.952;2022-07-12T03:19:57;18.52;;;16.93;;
57846;SDS011;43675;50.030;21.952;2022-07-12T03:22:23;18.40;;;16.80;;
57846;SDS011;43675;50.030;21.952;2022-07-12T03:24:49;18.32;;;16.52;;
57846;SDS011;43675;50.030;21.952;2022-07-12T03:27:15;17.60;;;16.10;;
57846;SDS011;43675;50.030;21.952;2022-07-12T03:29:40;19.00;;;17.25;;
57846;SDS011;43675;50.030;21.952;2022-07-12T03:32:06;19.02;;;17.20;;
57846;SDS011;43675;50.030;21.952;2022-07-12T03:34:32;19.05;;;17.27;;
57846;SDS011;43675;50.030;21.952;2022-07-12T03:36:58;18.42;;;16.82;;
57846;SDS011;43675;50.030;21.952;2022-07-12T03:39:24;18.27;;;16.62;;
57846;SDS011;43675;50.030;21.952;2022-07-12T03:41:50;18.80;;;17.10;;
57846;SDS011;43675;50.030;21.952;2022-07-12T03:44:15;18.55;;;16.80;;
57846;SDS011;43675;50.030;21.952;2022-07-12T03:46:41;18.92;;;17.20;;
57846;SDS011;43675;50.030;21.952;2022-07-12T03:49:07;19.10;;;17.48;;
57846;SDS011;43675;50.030;21.952;2022-07-12T03:51:33;19.27;;;17.57;;
57846;SDS011;43675;50.030;21.952;2022-07-12T03:53:59;19.87;;;17.92;;
57846;SDS011;43675;50.030;21.952;2022-07-12T03:56:24;19.17;;;17.37;;
57846;SDS011;43675;50.030;21.952;2022-07-12T03:58:50;19.32;;;17.73;;
57846;SDS011;43675;50.030;21.952;2022-07-12T04:01:15;19.10;;;17.60;;
57846;SDS011;43675;50.030;21.952;2022-07-12T04:03:41;19.35;;;17.73;;
57846;SDS011;43675;50.030;21.952;2022-07-12T04:06:07;19.75;;;18.05;;
57846;SDS011;43675;50.030;21.952;2022-07-12T04:08:32;19.30;;;17.50;;
57846;SDS011;43675;50.030;21.952;2022-07-12T04:10:58;19.23;;;17.40;;
57846;SDS011;43675;50.030;21.952;2022-07-12T04:13:23;19.40;;;17.80;;
57846;SDS011;43675;50.030;21.952;2022-07-12T04:15:49;19.52;;;17.80;;
57846;SDS011;43675;50.030;21.952;2022-07-12T04:18:14;19.67;;;17.80;;
57846;SDS011;43675;50.030;21.952;2022-07-12T04:20:40;18.92;;;17.42;;
57846;SDS011;43675;50.030;21.952;2022-07-12T04:23:06;18.48;;;16.82;;
57846;SDS011;43675;50.030;21.952;2022-07-12T04:25:31;18.07;;;16.62;;
57846;SDS011;43675;50.030;21.952;2022-07-12T04:27:57;17.80;;;16.32;;
57846;SDS011;43675;50.030;21.952;2022-07-12T04:30:22;17.48;;;15.95;;
57846;SDS011;43675;50.030;21.952;2022-07-12T04:32:48;17.40;;;15.90;;
57846;SDS011;43675;50.030;21.952;2022-07-12T04:35:13;18.65;;;16.90;;
57846;SDS011;43675;50.030;21.952;2022-07-12T04:37:39;17.65;;;16.25;;
57846;SDS011;43675;50.030;21.952;2022-07-12T04:40:05;17.65;;;16.25;;
57846;SDS011;43675;50.030;21.952;2022-07-12T04:42:31;17.42;;;16.02;;
57846;SDS011;43675;50.030;21.952;2022-07-12T04:44:57;18.80;;;17.17;;
57846;SDS011;43675;50.030;21.952;2022-07-12T04:47:22;18.62;;;17.00;;
57846;SDS011;43675;50.030;21.952;2022-07-12T04:49:48;18.85;;;17.30;;
57846;SDS011;43675;50.030;21.952;2022-07-12T04:52:13;17.90;;;16.50;;
57846;SDS011;43675;50.030;21.952;2022-07-12T04:54:39;18.25;;;16.82;;
57846;SDS011;43675;50.030;21.952;2022-07-12T04:57:05;18.45;;;16.80;;
57846;SDS011;43675;50.030;21.952;2022-07-12T04:59:30;17.95;;;16.48;;
57846;SDS011;43675;50.030;21.952;2022-07-12T05:01:56;18.77;;;16.93;;
57846;SDS011;43675;50.030;21.952;2022-07-12T05:04:21;18.35;;;16.85;;
57846;SDS011;43675;50.030;21.952;2022-07-12T05:06:47;18.42;;;16.85;;
57846;SDS011;43675;50.030;21.952;2022-07-12T05:09:13;18.52;;;17.02;;
57846;SDS011;43675;50.030;21.952;2022-07-12T05:11:39;18.73;;;17.00;;
57846;SDS011;43675;50.030;21.952;2022-07-12T05:14:05;19.20;;;17.40;;
57846;SDS011;43675;50.030;21.952;2022-07-12T05:16:31;19.40;;;17.62;;
57846;SDS011;43675;50.030;21.952;2022-07-12T05:18:56;17.45;;;16.15;;
57846;SDS011;43675;50.030;21.952;2022-07-12T05:21:22;17.80;;;16.30;;
57846;SDS011;43675;50.030;21.952;2022-07-12T05:23:48;18.50;;;17.00;;
57846;SDS011;43675;50.030;21.952;2022-07-12T05:26:13;18.27;;;16.55;;
57846;SDS011;43675;50.030;21.952;2022-07-12T05:28:39;18.55;;;16.77;;
57846;SDS011;43675;50.030;21.952;2022-07-12T05:31:04;18.60;;;16.93;;
57846;SDS011;43675;50.030;21.952;2022-07-12T05:33:30;18.07;;;16.48;;
57846;SDS011;43675;50.030;21.952;2022-07-12T05:35:55;17.92;;;16.42;;
57846;SDS011;43675;50.030;21.952;2022-07-12T05:38:21;18.05;;;16.35;;
57846;SDS011;43675;50.030;21.952;2022-07-12T05:40:47;17.37;;;15.98;;
57846;SDS011;43675;50.030;21.952;2022-07-12T05:43:12;17.27;;;15.83;;
57846;SDS011;43675;50.030;21.952;2022-07-12T05:45:40;17.05;;;15.68;;
57846;SDS011;43675;50.030;21.952;2022-07-12T05:48:06;17.52;;;16.12;;
57846;SDS011;43675;50.030;21.952;2022-07-12T05:50:32;17.92;;;16.23;;
57846;SDS011;43675;50.030;21.952;2022-07-12T05:52:58;18.62;;;16.93;;
57846;SDS011;43675;50.030;21.952;2022-07-12T05:55:23;18.30;;;16.55;;
57846;SDS011;43675;50.030;21.952;2022-07-12T05:57:49;18.07;;;16.60;;
57846;SDS011;43675;50.030;21.952;2022-07-12T06:00:15;18.00;;;16.40;;
57846;SDS011;43675;50.030;21.952;2022-07-12T06:02:41;17.60;;;16.15;;
57846;SDS011;43675;50.030;21.952;2022-07-12T06:05:06;17.73;;;16.20;;
57846;SDS011;43675;50.030;21.952;2022-07-12T06:07:32;17.35;;;15.95;;
57846;SDS011;43675;50.030;21.952;2022-07-12T06:09:58;17.62;;;16.02;;
57846;SDS011;43675;50.030;21.952;2022-07-12T06:12:24;17.32;;;15.85;;
57846;SDS011;43675;50.030;21.952;2022-07-12T06:14:49;16.97;;;15.60;;
57846;SDS011;43675;50.030;21.952;2022-07-12T06:17:15;17.75;;;16.12;;
57846;SDS011;43675;50.030;21.952;2022-07-12T06:19:41;16.87;;;15.58;;
57846;SDS011;43675;50.030;21.952;2022-07-12T06:22:06;16.50;;;15.08;;
57846;SDS011;43675;50.030;21.952;2022-07-12T06:24:32;15.95;;;14.65;;
57846;SDS011;43675;50.030;21.952;2022-07-12T06:26:57;15.85;;;14.55;;
57846;SDS011;43675;50.030;21.952;2022-07-12T06:29:23;16.70;;;15.18;;
57846;SDS011;43675;50.030;21.952;2022-07-12T06:31:49;17.15;;;15.78;;
57846;SDS011;43675;50.030;21.952;2022-07-12T06:34:14;16.60;;;15.30;;
57846;SDS011;43675;50.030;21.952;2022-07-12T06:36:40;16.27;;;15.15;;
57846;SDS011;43675;50.030;21.952;2022-07-12T06:39:05;16.40;;;15.10;;
57846;SDS011;43675;50.030;21.952;2022-07-12T06:41:31;16.55;;;15.15;;
57846;SDS011;43675;50.030;21.952;2022-07-12T06:43:56;16.87;;;15.48;;
57846;SDS011;43675;50.030;21.952;2022-07-12T06:46:22;16.60;;;15.30;;
57846;SDS011;43675;50.030;21.952;2022-07-12T06:48:48;16.57;;;15.28;;
57846;SDS011;43675;50.030;21.952;2022-07-12T06:51:13;16.32;;;15.10;;
57846;SDS011;43675;50.030;21.952;2022-07-12T06:53:39;16.48;;;15.20;;
57846;SDS011;43675;50.030;21.952;2022-07-12T06:56:04;16.35;;;14.98;;
57846;SDS011;43675;50.030;21.952;2022-07-12T06:58:30;16.35;;;15.15;;
57846;SDS011;43675;50.030;21.952;2022-07-12T07:00:56;16.00;;;14.70;;
57846;SDS011;43675;50.030;21.952;2022-07-12T07:03:21;16.45;;;14.85;;
57846;SDS011;43675;50.030;21.952;2022-07-12T07:05:47;16.07;;;14.68;;
57846;SDS011;43675;50.030;21.952;2022-07-12T07:08:12;15.63;;;14.40;;
57846;SDS011;43675;50.030;21.952;2022-07-12T07:10:38;15.75;;;14.55;;
57846;SDS011;43675;50.030;21.952;2022-07-12T07:13:04;16.25;;;14.93;;
57846;SDS011;43675;50.030;21.952;2022-07-12T07:15:29;15.53;;;14.43;;
57846;SDS011;43675;50.030;21.952;2022-07-12T07:17:55;15.72;;;14.45;;
57846;SDS011;43675;50.030;21.952;2022-07-12T07:20:21;15.50;;;14.20;;
57846;SDS011;43675;50.030;21.952;2022-07-12T07:22:46;16.00;;;14.80;;
57846;SDS011;43675;50.030;21.952;2022-07-12T07:25:12;16.07;;;14.78;;
57846;SDS011;43675;50.030;21.952;2022-07-12T07:27:37;15.90;;;14.70;;
57846;SDS011;43675;50.030;21.952;2022-07-12T07:30:03;16.02;;;14.87;;
57846;SDS011;43675;50.030;21.952;2022-07-12T07:32:29;16.10;;;14.80;;
57846;SDS011;43675;50.030;21.952;2022-07-12T07:34:55;15.98;;;14.68;;
57846;SDS011;43675;50.030;21.952;2022-07-12T07:37:21;15.68;;;14.58;;
57846;SDS011;43675;50.030;21.952;2022-07-12T07:39:46;15.70;;;14.40;;
57846;SDS011;43675;50.030;21.952;2022-07-12T07:42:12;15.80;;;14.50;;
57846;SDS011;43675;50.030;21.952;2022-07-12T07:44:38;15.43;;;14.33;;
57846;SDS011;43675;50.030;21.952;2022-07-12T07:47:03;15.70;;;14.50;;
57846;SDS011;43675;50.030;21.952;2022-07-12T07:49:29;15.43;;;14.33;;
57846;SDS011;43675;50.030;21.952;2022-07-12T07:51:55;15.40;;;14.30;;
57846;SDS011;43675;50.030;21.952;2022-07-12T07:54:20;15.55;;;14.38;;
57846;SDS011;43675;50.030;21.952;2022-07-12T07:56:46;15.43;;;14.30;;
57846;SDS011;43675;50.030;21.952;2022-07-12T07:59:11;16.45;;;15.13;;
57846;SDS011;43675;50.030;21.952;2022-07-12T08:01:37;15.65;;;14.45;;
57846;SDS011;43675;50.030;21.952;2022-07-12T08:04:03;15.85;;;14.55;;
57846;SDS011;43675;50.030;21.952;2022-07-12T08:06:28;15.75;;;14.55;;
57846;SDS011;43675;50.030;21.952;2022-07-12T08:08:54;16.07;;;14.68;;
57846;SDS011;43675;50.030;21.952;2022-07-12T08:11:19;16.00;;;14.80;;
57846;SDS011;43675;50.030;21.952;2022-07-12T08:13:45;15.70;;;14.50;;
57846;SDS011;43675;50.030;21.952;2022-07-12T08:16:11;15.03;;;13.83;;
57846;SDS011;43675;50.030;21.952;2022-07-12T08:18:36;15.25;;;14.05;;
57846;SDS011;43675;50.030;21.952;2022-07-12T08:21:02;15.25;;;13.90;;
57846;SDS011;43675;50.030;21.952;2022-07-12T08:23:27;16.60;;;15.30;;
57846;SDS011;43675;50.030;21.952;2022-07-12T08:25:53;16.25;;;14.75;;
57846;SDS011;43675;50.030;21.952;2022-07-12T08:28:19;15.50;;;14.20;;
57846;SDS011;43675;50.030;21.952;2022-07-12T08:30:44;15.13;;;14.03;;
57846;SDS011;43675;50.030;21.952;2022-07-12T08:33:10;15.25;;;13.90;;
57846;SDS011;43675;50.030;21.952;2022-07-12T08:35:35;15.13;;;13.90;;
57846;SDS011;43675;50.030;21.952;2022-07-12T08:38:01;15.88;;;14.30;;
57846;SDS011;43675;50.030;21.952;2022-07-12T08:40:26;15.58;;;14.38;;
57846;SDS011;43675;50.030;21.952;2022-07-12T08:42:52;17.98;;;16.40;;
57846;SDS011;43675;50.030;21.952;2022-07-12T08:45:21;17.50;;;16.00;;
57846;SDS011;43675;50.030;21.952;2022-07-12T08:47:47;17.02;;;15.70;;
57846;SDS011;43675;50.030;21.952;2022-07-12T08:50:19;17.80;;;16.17;;
57846;SDS011;43675;50.030;21.952;2022-07-12T08:52:46;17.25;;;15.85;;
57846;SDS011;43675;50.030;21.952;2022-07-12T08:55:33;22.10;;;16.02;;
57846;SDS011;43675;50.030;21.952;2022-07-12T08:57:58;17.70;;;16.30;;
57846;SDS011;43675;50.030;21.952;2022-07-12T09:00:26;17.23;;;15.78;;
57846;SDS011;43675;50.030;21.952;2022-07-12T09:02:53;16.70;;;15.50;;
57846;SDS011;43675;50.030;21.952;2022-07-12T09:05:24;16.37;;;14.98;;
57846;SDS011;43675;50.030;21.952;2022-07-12T09:07:51;16.75;;;15.30;;
57846;SDS011;43675;50.030;21.952;2022-07-12T09:10:19;15.80;;;14.47;;
57846;SDS011;43675;50.030;21.952;2022-07-12T09:12:44;15.50;;;14.40;;
57846;SDS011;43675;50.030;21.952;2022-07-12T09:18:02;15.30;;;14.10;;
57846;SDS011;43675;50.030;21.952;2022-07-12T09:20:25;15.85;;;14.65;;
57846;SDS011;43675;50.030;21.952;2022-07-12T09:23:02;17.32;;;15.93;;
57846;SDS011;43675;50.030;21.952;2022-07-12T09:25:29;15.98;;;14.78;;
57846;SDS011;43675;50.030;21.952;2022-07-12T09:28:02;16.25;;;14.87;;
57846;SDS011;43675;50.030;21.952;2022-07-12T09:30:24;15.50;;;14.45;;
57846;SDS011;43675;50.030;21.952;2022-07-12T09:35:26;16.27;;;15.03;;
57846;SDS011;43675;50.030;21.952;2022-07-12T09:37:52;16.65;;;15.40;;
57846;SDS011;43675;50.030;21.952;2022-07-12T09:40:18;16.57;;;15.25;;
57846;SDS011;43675;50.030;21.952;2022-07-12T09:42:45;16.90;;;15.20;;
57846;SDS011;43675;50.030;21.952;2022-07-12T09:45:13;16.80;;;15.50;;
57846;SDS011;43675;50.030;21.952;2022-07-12T09:47:40;16.73;;;15.43;;
57846;SDS011;43675;50.030;21.952;2022-07-12T09:50:08;16.67;;;15.15;;
57846;SDS011;43675;50.030;21.952;2022-07-12T09:52:36;17.00;;;15.50;;
57846;SDS011;43675;50.030;21.952;2022-07-12T09:55:02;17.05;;;15.68;;
57846;SDS011;43675;50.030;21.952;2022-07-12T09:57:31;16.62;;;15.25;;
57846;SDS011;43675;50.030;21.952;2022-07-12T09:59:59;16.82;;;15.28;;
57846;SDS011;43675;50.030;21.952;2022-07-12T10:02:26;16.50;;;15.20;;
57846;SDS011;43675;50.030;21.952;2022-07-12T10:04:53;16.62;;;15.35;;
57846;SDS011;43675;50.030;21.952;2022-07-12T10:07:19;16.57;;;15.38;;
57846;SDS011;43675;50.030;21.952;2022-07-12T10:09:50;16.45;;;15.20;;
57846;SDS011;43675;50.030;21.952;2022-07-12T10:12:18;16.85;;;15.15;;
57846;SDS011;43675;50.030;21.952;2022-07-12T10:14:45;16.48;;;15.08;;
57846;SDS011;43675;50.030;21.952;2022-07-12T10:17:14;17.23;;;15.60;;
57846;SDS011;43675;50.030;21.952;2022-07-12T10:19:43;16.12;;;14.93;;
57846;SDS011;43675;50.030;21.952;2022-07-12T10:22:18;15.93;;;14.73;;
57846;SDS011;43675;50.030;21.952;2022-07-12T10:29:43;16.40;;;15.30;;
57846;SDS011;43675;50.030;21.952;2022-07-12T10:32:25;18.90;;;17.17;;
57846;SDS011;43675;50.030;21.952;2022-07-12T10:37:27;18.73;;;17.32;;
57846;SDS011;43675;50.030;21.952;2022-07-12T10:42:40;18.17;;;16.67;;
57846;SDS011;43675;50.030;21.952;2022-07-12T10:45:28;18.65;;;17.15;;
57846;SDS011;43675;50.030;21.952;2022-07-12T10:48:03;18.15;;;16.60;;
57846;SDS011;43675;50.030;21.952;2022-07-12T10:58:33;16.75;;;15.50;;
57846;SDS011;43675;50.030;21.952;2022-07-12T11:01:05;16.30;;;15.10;;
57846;SDS011;43675;50.030;21.952;2022-07-12T11:06:14;16.50;;;15.20;;
57846;SDS011;43675;50.030;21.952;2022-07-12T11:08:48;16.20;;;14.95;;
57846;SDS011;43675;50.030;21.952;2022-07-12T11:11:23;16.00;;;14.75;;
57846;SDS011;43675;50.030;21.952;2022-07-12T11:13:50;15.13;;;14.13;;
57846;SDS011;43675;50.030;21.952;2022-07-12T11:16:16;15.80;;;14.58;;
57846;SDS011;43675;50.030;21.952;2022-07-12T11:18:42;16.10;;;15.00;;
57846;SDS011;43675;50.030;21.952;2022-07-12T11:21:08;15.78;;;14.53;;
57846;SDS011;43675;50.030;21.952;2022-07-12T11:23:34;15.93;;;14.83;;
57846;SDS011;43675;50.030;21.952;2022-07-12T11:26:00;16.20;;;15.05;;
57846;SDS011;43675;50.030;21.952;2022-07-12T11:28:28;16.50;;;15.30;;
57846;SDS011;43675;50.030;21.952;2022-07-12T11:31:05;16.05;;;14.85;;
57846;SDS011;43675;50.030;21.952;2022-07-12T11:33:33;16.42;;;15.20;;
57846;SDS011;43675;50.030;21.952;2022-07-12T11:36:02;15.70;;;14.55;;
57846;SDS011;43675;50.030;21.952;2022-07-12T11:38:29;16.23;;;14.90;;
57846;SDS011;43675;50.030;21.952;2022-07-12T11:40:57;15.60;;;14.50;;
57846;SDS011;43675;50.030;21.952;2022-07-12T11:43:24;15.90;;;14.65;;
57846;SDS011;43675;50.030;21.952;2022-07-12T11:45:50;15.58;;;14.47;;
57846;SDS011;43675;50.030;21.952;2022-07-12T11:48:15;16.10;;;14.65;;
57846;SDS011;43675;50.030;21.952;2022-07-12T11:50:44;16.12;;;14.87;;
57846;SDS011;43675;50.030;21.952;2022-07-12T11:53:20;16.12;;;15.03;;
57846;SDS011;43675;50.030;21.952;2022-07-12T11:55:50;16.35;;;14.93;;
57846;SDS011;43675;50.030;21.952;2022-07-12T11:58:18;16.10;;;14.80;;
57846;SDS011;43675;50.030;21.952;2022-07-12T12:00:45;16.10;;;14.90;;
57846;SDS011;43675;50.030;21.952;2022-07-12T12:03:12;16.12;;;14.83;;
57846;SDS011;43675;50.030;21.952;2022-07-12T12:05:38;15.70;;;14.30;;
57846;SDS011;43675;50.030;21.952;2022-07-12T12:08:05;16.35;;;14.70;;
57846;SDS011;43675;50.030;21.952;2022-07-12T12:10:32;15.98;;;14.75;;
57846;SDS011;43675;50.030;21.952;2022-07-12T12:12:59;15.53;;;14.43;;
57846;SDS011;43675;50.030;21.952;2022-07-12T12:15:27;15.72;;;14.43;;
57846;SDS011;43675;50.030;21.952;2022-07-12T12:17:57;15.32;;;14.23;;
57846;SDS011;43675;50.030;21.952;2022-07-12T12:20:28;15.40;;;14.30;;
57846;SDS011;43675;50.030;21.952;2022-07-12T12:22:56;16.62;;;15.23;;
57846;SDS011;43675;50.030;21.952;2022-07-12T12:25:23;16.60;;;15.15;;
57846;SDS011;43675;50.030;21.952;2022-07-12T12:28:00;15.93;;;14.83;;
57846;SDS011;43675;50.030;21.952;2022-07-12T12:30:31;15.65;;;14.45;;
57846;SDS011;43675;50.030;21.952;2022-07-12T12:32:59;16.17;;;15.00;;
57846;SDS011;43675;50.030;21.952;2022-07-12T12:35:37;16.07;;;14.75;;
57846;SDS011;43675;50.030;21.952;2022-07-12T12:38:11;15.58;;;14.47;;
57846;SDS011;43675;50.030;21.952;2022-07-12T12:40:38;15.93;;;14.68;;
57846;SDS011;43675;50.030;21.952;2022-07-12T12:43:10;15.50;;;14.40;;
57846;SDS011;43675;50.030;21.952;2022-07-12T12:45:53;15.72;;;14.50;;
57846;SDS011;43675;50.030;21.952;2022-07-12T12:51:08;15.98;;;14.78;;
57846;SDS011;43675;50.030;21.952;2022-07-12T12:53:35;15.75;;;14.55;;
57846;SDS011;43675;50.030;21.952;2022-07-12T12:56:01;15.58;;;14.38;;
57846;SDS011;43675;50.030;21.952;2022-07-12T12:58:29;15.32;;;14.10;;
57846;SDS011;43675;50.030;21.952;2022-07-12T13:00:54;15.05;;;13.95;;
57846;SDS011;43675;50.030;21.952;2022-07-12T13:03:21;15.70;;;14.40;;
57846;SDS011;43675;50.030;21.952;2022-07-12T13:05:47;29.40;;;26.30;;
57846;SDS011;43675;50.030;21.952;2022-07-12T13:08:14;28.92;;;25.82;;
57846;SDS011;43675;50.030;21.952;2022-07-12T13:10:41;30.88;;;27.98;;
57846;SDS011;43675;50.030;21.952;2022-07-12T13:13:08;28.20;;;25.70;;
57846;SDS011;43675;50.030;21.952;2022-07-12T13:15:35;21.85;;;20.20;;
57846;SDS011;43675;50.030;21.952;2022-07-12T13:18:01;18.77;;;17.23;;
57846;SDS011;43675;50.030;21.952;2022-07-12T13:20:28;17.10;;;15.65;;
57846;SDS011;43675;50.030;21.952;2022-07-12T13:22:54;17.20;;;15.80;;
57846;SDS011;43675;50.030;21.952;2022-07-12T13:25:20;17.07;;;15.85;;
57846;SDS011;43675;50.030;21.952;2022-07-12T13:27:46;17.30;;;16.10;;
57846;SDS011;43675;50.030;21.952;2022-07-12T13:30:12;17.87;;;16.52;;
57846;SDS011;43675;50.030;21.952;2022-07-12T13:32:39;18.30;;;16.70;;
57846;SDS011;43675;50.030;21.952;2022-07-12T13:35:06;18.48;;;17.07;;
57846;SDS011;43675;50.030;21.952;2022-07-12T13:37:34;17.25;;;15.85;;
57846;SDS011;43675;50.030;21.952;2022-07-12T13:40:01;17.87;;;16.65;;
57846;SDS011;43675;50.030;21.952;2022-07-12T13:42:27;17.30;;;15.72;;
57846;SDS011;43675;50.030;21.952;2022-07-12T13:44:53;17.00;;;15.70;;
57846;SDS011;43675;50.030;21.952;2022-07-12T13:47:19;17.17;;;15.90;;
57846;SDS011;43675;50.030;21.952;2022-07-12T13:49:45;17.80;;;16.50;;
57846;SDS011;43675;50.030;21.952;2022-07-12T13:52:11;17.05;;;15.85;;
57846;SDS011;43675;50.030;21.952;2022-07-12T13:54:36;16.60;;;15.20;;
57846;SDS011;43675;50.030;21.952;2022-07-12T13:57:02;16.73;;;15.43;;
57846;SDS011;43675;50.030;21.952;2022-07-12T13:59:28;16.32;;;14.93;;
57846;SDS011;43675;50.030;21.952;2022-07-12T14:01:54;16.73;;;15.25;;
57846;SDS011;43675;50.030;21.952;2022-07-12T14:04:20;16.50;;;15.30;;
57846;SDS011;43675;50.030;21.952;2022-07-12T14:06:46;16.40;;;15.20;;
57846;SDS011;43675;50.030;21.952;2022-07-12T14:09:11;16.35;;;15.18;;
57846;SDS011;43675;50.030;21.952;2022-07-12T14:11:37;16.42;;;15.18;;
57846;SDS011;43675;50.030;21.952;2022-07-12T14:14:02;16.60;;;15.30;;
57846;SDS011;43675;50.030;21.952;2022-07-12T14:16:28;17.17;;;15.68;;
57846;SDS011;43675;50.030;21.952;2022-07-12T14:18:53;16.60;;;15.50;;
57846;SDS011;43675;50.030;21.952;2022-07-12T14:21:19;16.75;;;15.35;;
57846;SDS011;43675;50.030;21.952;2022-07-12T14:23:45;16.42;;;15.25;;
57846;SDS011;43675;50.030;21.952;2022-07-12T14:26:10;16.90;;;15.70;;
57846;SDS011;43675;50.030;21.952;2022-07-12T14:28:36;17.10;;;15.70;;
57846;SDS011;43675;50.030;21.952;2022-07-12T14:31:02;16.27;;;15.10;;
57846;SDS011;43675;50.030;21.952;2022-07-12T14:33:29;15.83;;;14.73;;